Time;durP1;ratioP1;P1;durP2;ratioP2;P2;SDS_P1;SDS_P2;PMS_P1;PMS_P2;Temp;Humidity;BMP_temperature;BMP_pressure;BME280_temperature;BME280_humidity;BME280_pressure;Samples;Min_cycle;Max_cycle;Signal;HPM_P1;HPM_P2
2023/06/15 00:00:12;;;;;;;0.60;0.60;;;;;;;;;;5063774;28;20055;-61
2023/06/15 00:02:39;;;;;;;1.35;0.60;;;;;;;;;;5063147;28;20075;-61
2023/06/15 00:05:07;;;;;;;0.60;0.60;;;;;;;;;;5062985;28;20137;-61
2023/06/15 00:07:33;;;;;;;0.40;0.30;;;;;;;;;;5063458;28;20045;-61
2023/06/15 00:09:59;;;;;;;0.50;0.43;;;;;;;;;;5062460;28;20488;-61
2023/06/15 00:12:25;;;;;;;0.57;0.57;;;;;;;;;;5063607;28;20344;-61
2023/06/15 00:14:51;;;;;;;0.40;0.40;;;;;;;;;;5063130;28;20051;-61
2023/06/15 00:17:17;;;;;;;0.40;0.40;;;;;;;;;;5062275;28;20087;-61
2023/06/15 00:19:46;;;;;;;0.77;0.70;;;;;;;;;;5063169;28;20068;-61
2023/06/15 00:22:15;;;;;;;1.48;0.82;;;;;;;;;;5062903;28;20121;-61
2023/06/15 00:24:42;;;;;;;0.60;0.60;;;;;;;;;;5062113;28;20504;-61
2023/06/15 00:27:09;;;;;;;0.80;0.77;;;;;;;;;;5062670;28;20060;-61
2023/06/15 00:29:35;;;;;;;0.90;0.80;;;;;;;;;;5063134;28;20067;-60
2023/06/15 00:32:01;;;;;;;0.85;0.80;;;;;;;;;;5062165;28;20044;-61
2023/06/15 00:34:27;;;;;;;0.95;0.80;;;;;;;;;;5063436;28;20048;-61
2023/06/15 00:36:53;;;;;;;0.50;0.50;;;;;;;;;;5061723;28;20178;-61
2023/06/15 00:39:19;;;;;;;0.60;0.60;;;;;;;;;;5062781;28;20063;-61
2023/06/15 00:41:45;;;;;;;0.60;0.60;;;;;;;;;;5062895;28;20041;-61
2023/06/15 00:44:11;;;;;;;1.00;0.82;;;;;;;;;;5062226;28;20044;-61
2023/06/15 00:46:38;;;;;;;1.15;0.73;;;;;;;;;;5062889;28;20443;-60
2023/06/15 00:49:05;;;;;;;0.60;0.60;;;;;;;;;;5062747;28;20132;-61
2023/06/15 00:51:31;;;;;;;0.90;0.80;;;;;;;;;;5062371;28;20175;-61
2023/06/15 00:53:58;;;;;;;0.60;0.55;;;;;;;;;;5063995;28;20049;-61
2023/06/15 00:56:29;;;;;;;0.70;0.70;;;;;;;;;;5067043;28;20040;-61
2023/06/15 00:58:55;;;;;;;2.60;0.95;;;;;;;;;;5066192;28;20044;-61
2023/06/15 01:01:21;;;;;;;1.17;0.60;;;;;;;;;;5066901;28;20370;-61
2023/06/15 01:03:47;;;;;;;1.30;0.70;;;;;;;;;;5066479;28;20052;-61
2023/06/15 01:06:16;;;;;;;1.88;0.70;;;;;;;;;;5066037;28;20033;-61
2023/06/15 01:08:44;;;;;;;0.50;0.50;;;;;;;;;;5066814;28;20415;-61
2023/06/15 01:11:10;;;;;;;0.95;0.68;;;;;;;;;;5066182;28;20060;-61
2023/06/15 01:13:36;;;;;;;0.52;0.52;;;;;;;;;;5065950;28;20071;-61
2023/06/15 01:16:04;;;;;;;0.75;0.68;;;;;;;;;;5066929;28;20040;-61
2023/06/15 01:18:31;;;;;;;0.38;0.38;;;;;;;;;;5066968;28;20045;-61
2023/06/15 01:21:01;;;;;;;0.68;0.60;;;;;;;;;;5065749;28;20439;-61
2023/06/15 01:23:50;;;;;;;0.40;0.40;;;;;;;;;;5066908;28;20053;-61
2023/06/15 01:26:17;;;;;;;0.60;0.50;;;;;;;;;;5065635;28;20040;-61
2023/06/15 01:28:47;;;;;;;0.43;0.43;;;;;;;;;;5066171;28;20117;-61
2023/06/15 01:31:14;;;;;;;1.00;0.60;;;;;;;;;;5066144;28;20051;-61
2023/06/15 01:33:46;;;;;;;1.38;0.70;;;;;;;;;;5065257;28;20048;-61
2023/06/15 01:36:13;;;;;;;1.00;0.47;;;;;;;;;;5065857;28;20411;-61
2023/06/15 01:38:39;;;;;;;0.70;0.70;;;;;;;;;;5065824;28;20094;-61
2023/06/15 01:41:06;;;;;;;0.47;0.47;;;;;;;;;;5065052;28;20128;-61
2023/06/15 01:43:33;;;;;;;0.40;0.40;;;;;;;;;;5065792;28;20071;-61
2023/06/15 01:45:59;;;;;;;0.75;0.70;;;;;;;;;;5065998;28;20041;-61
2023/06/15 01:48:26;;;;;;;0.60;0.60;;;;;;;;;;5065364;28;20561;-61
2023/06/15 01:50:53;;;;;;;0.40;0.40;;;;;;;;;;5065496;28;20044;-61
2023/06/15 01:53:19;;;;;;;0.57;0.57;;;;;;;;;;5065787;28;20048;-60
2023/06/15 01:55:45;;;;;;;0.60;0.40;;;;;;;;;;5064971;28;20051;-61
2023/06/15 01:58:15;;;;;;;0.75;0.60;;;;;;;;;;5065769;28;20123;-61
2023/06/15 02:00:41;;;;;;;0.70;0.60;;;;;;;;;;5065627;28;20059;-60
2023/06/15 02:03:07;;;;;;;0.70;0.70;;;;;;;;;;5064478;28;20044;-61
2023/06/15 02:05:39;;;;;;;1.52;0.70;;;;;;;;;;5065529;28;20079;-61
2023/06/15 02:08:05;;;;;;;0.50;0.50;;;;;;;;;;5065691;28;20879;-60
2023/06/15 02:10:31;;;;;;;0.50;0.50;;;;;;;;;;5065242;28;20132;-60
2023/06/15 02:12:57;;;;;;;1.05;0.75;;;;;;;;;;5065839;28;20325;-60
2023/06/15 02:15:24;;;;;;;0.55;0.55;;;;;;;;;;5064504;28;20055;-61
2023/06/15 02:17:57;;;;;;;0.75;0.60;;;;;;;;;;5065253;28;20113;-61
2023/06/15 02:20:23;;;;;;;0.68;0.68;;;;;;;;;;5065552;28;20514;-61
2023/06/15 02:22:52;;;;;;;0.50;0.40;;;;;;;;;;5063993;28;20044;-61
2023/06/15 02:25:21;;;;;;;1.50;0.90;;;;;;;;;;5065136;28;20060;-60
2023/06/15 02:27:47;;;;;;;0.57;0.57;;;;;;;;;;5064452;28;20044;-61
2023/06/15 02:30:13;;;;;;;0.85;0.70;;;;;;;;;;5064645;28;20482;-62
2023/06/15 02:32:39;;;;;;;0.68;0.60;;;;;;;;;;5064947;28;20044;-61
2023/06/15 02:35:10;;;;;;;0.80;0.80;;;;;;;;;;5064573;28;20500;-60
2023/06/15 02:37:36;;;;;;;0.77;0.77;;;;;;;;;;5064530;28;20125;-61
2023/06/15 02:40:04;;;;;;;0.82;0.82;;;;;;;;;;5064476;28;20040;-61
2023/06/15 02:42:30;;;;;;;0.60;0.60;;;;;;;;;;5065201;28;20552;-60
2023/06/15 02:44:56;;;;;;;1.45;1.20;;;;;;;;;;5063822;28;20067;-60
2023/06/15 02:47:23;;;;;;;0.98;0.98;;;;;;;;;;5064827;28;20087;-61
2023/06/15 02:49:49;;;;;;;1.10;1.10;;;;;;;;;;5065326;28;20080;-61
2023/06/15 02:52:15;;;;;;;1.10;1.00;;;;;;;;;;5047083;28;20052;-60
2023/06/15 02:54:41;;;;;;;0.68;0.68;;;;;;;;;;5065428;28;20048;-60
2023/06/15 02:57:08;;;;;;;0.90;0.90;;;;;;;;;;5065482;28;20047;-61
2023/06/15 02:59:35;;;;;;;1.00;1.00;;;;;;;;;;5064356;28;20052;-60
2023/06/15 03:02:05;;;;;;;1.05;1.00;;;;;;;;;;5065246;28;20048;-60
2023/06/15 03:04:32;;;;;;;1.23;1.10;;;;;;;;;;5064084;28;20044;-60
2023/06/15 03:06:59;;;;;;;1.20;0.93;;;;;;;;;;5065440;28;20055;-61
2023/06/15 03:09:25;;;;;;;1.73;1.35;;;;;;;;;;5064112;28;20443;-60
2023/06/15 03:11:51;;;;;;;1.40;1.30;;;;;;;;;;5063681;28;20148;-60
2023/06/15 03:14:20;;;;;;;1.10;1.00;;;;;;;;;;5064234;28;20530;-61
2023/06/15 03:16:47;;;;;;;1.55;0.90;;;;;;;;;;5063603;28;20044;-61
2023/06/15 03:19:17;;;;;;;1.30;1.20;;;;;;;;;;5062992;28;20561;-60
2023/06/15 03:21:43;;;;;;;1.35;1.13;;;;;;;;;;5063956;28;20504;-60
2023/06/15 03:24:10;;;;;;;1.70;0.98;;;;;;;;;;5063678;28;20158;-60
2023/06/15 03:26:40;;;;;;;1.30;1.20;;;;;;;;;;5063574;28;20040;-60
2023/06/15 03:29:07;;;;;;;1.10;0.73;;;;;;;;;;5064637;28;20047;-60
2023/06/15 03:31:40;;;;;;;2.88;1.02;;;;;;;;;;5064232;28;20120;-60
2023/06/15 03:34:07;;;;;;;1.10;1.00;;;;;;;;;;5063216;28;20500;-61
2023/06/15 03:36:33;;;;;;;1.30;1.10;;;;;;;;;;5063642;28;20040;-61
2023/06/15 03:38:59;;;;;;;1.20;1.15;;;;;;;;;;5064051;28;20048;-61
2023/06/15 03:41:30;;;;;;;1.23;1.13;;;;;;;;;;5063070;28;20068;-60
2023/06/15 03:43:56;;;;;;;0.80;0.68;;;;;;;;;;5063777;28;20497;-60
2023/06/15 03:46:22;;;;;;;0.70;0.70;;;;;;;;;;5063460;28;20047;-61
2023/06/15 03:48:49;;;;;;;0.90;0.90;;;;;;;;;;5062752;28;20040;-60
2023/06/15 03:51:15;;;;;;;1.17;1.08;;;;;;;;;;5063594;28;20048;-60
2023/06/15 03:53:45;;;;;;;0.88;0.88;;;;;;;;;;5063805;28;20114;-60
2023/06/15 03:56:11;;;;;;;0.85;0.85;;;;;;;;;;5063496;28;20044;-61
2023/06/15 03:58:37;;;;;;;1.45;1.02;;;;;;;;;;5063625;28;20451;-61
2023/06/15 04:01:06;;;;;;;1.02;0.90;;;;;;;;;;5062595;28;20040;-60
2023/06/15 04:03:36;;;;;;;1.15;1.05;;;;;;;;;;5063412;28;20056;-60
2023/06/15 04:06:04;;;;;;;0.85;0.80;;;;;;;;;;5063698;28;20048;-60
2023/06/15 04:08:30;;;;;;;0.98;0.90;;;;;;;;;;5062730;28;20048;-60
2023/06/15 04:10:56;;;;;;;1.02;0.88;;;;;;;;;;5063050;28;20435;-60
2023/06/15 04:13:23;;;;;;;1.17;0.93;;;;;;;;;;5063138;28;20053;-60
2023/06/15 04:15:50;;;;;;;1.20;1.10;;;;;;;;;;5062683;28;20048;-60
2023/06/15 04:18:16;;;;;;;1.20;1.10;;;;;;;;;;5062848;28;20044;-60
2023/06/15 04:20:43;;;;;;;0.95;0.95;;;;;;;;;;5063277;28;20047;-60
2023/06/15 04:23:10;;;;;;;1.15;1.00;;;;;;;;;;5062040;28;20492;-60
2023/06/15 04:25:37;;;;;;;0.85;0.85;;;;;;;;;;5063264;28;20094;-60
2023/06/15 04:28:05;;;;;;;0.80;0.80;;;;;;;;;;5062467;28;20040;-60
2023/06/15 04:30:32;;;;;;;0.77;0.77;;;;;;;;;;5063389;28;20105;-60
2023/06/15 04:32:59;;;;;;;0.80;0.80;;;;;;;;;;5063743;28;20044;-61
2023/06/15 04:35:29;;;;;;;1.15;0.80;;;;;;;;;;5062941;28;20393;-61
2023/06/15 04:37:58;;;;;;;0.80;0.80;;;;;;;;;;5062345;28;20744;-61
2023/06/15 04:40:24;;;;;;;1.08;0.98;;;;;;;;;;5044817;28;20071;-60
2023/06/15 04:42:50;;;;;;;0.90;0.90;;;;;;;;;;5063055;28;20147;-60
2023/06/15 04:45:16;;;;;;;2.78;1.10;;;;;;;;;;5062335;28;20324;-60
2023/06/15 04:47:42;;;;;;;1.40;0.90;;;;;;;;;;5062999;28;20044;-60
2023/06/15 04:50:09;;;;;;;0.77;0.77;;;;;;;;;;5062045;28;20047;-60
2023/06/15 04:52:35;;;;;;;0.80;0.80;;;;;;;;;;5062836;28;20041;-60
2023/06/15 04:55:01;;;;;;;0.70;0.70;;;;;;;;;;5063147;28;20571;-60
2023/06/15 04:57:27;;;;;;;1.02;0.93;;;;;;;;;;5061878;28;20116;-60
2023/06/15 04:59:53;;;;;;;0.60;0.60;;;;;;;;;;5063085;28;20047;-61
2023/06/15 05:02:19;;;;;;;0.60;0.60;;;;;;;;;;5063000;28;20059;-60
2023/06/15 05:04:46;;;;;;;0.43;0.43;;;;;;;;;;5062264;28;20076;-60
2023/06/15 05:07:12;;;;;;;0.60;0.60;;;;;;;;;;5062567;28;20045;-60
2023/06/15 05:09:38;;;;;;;0.82;0.73;;;;;;;;;;5044491;28;20504;-60
2023/06/15 05:12:04;;;;;;;0.95;0.70;;;;;;;;;;5061849;28;20087;-61
2023/06/15 05:14:30;;;;;;;0.60;0.60;;;;;;;;;;5045089;28;20055;-61
2023/06/15 05:16:57;;;;;;;0.82;0.50;;;;;;;;;;5062650;28;20047;-60
2023/06/15 05:19:23;;;;;;;0.65;0.43;;;;;;;;;;5061969;28;20044;-61
2023/06/15 05:21:52;;;;;;;0.50;0.50;;;;;;;;;;5062631;28;20052;-61
2023/06/15 05:24:18;;;;;;;0.32;0.32;;;;;;;;;;5061945;28;20520;-60
2023/06/15 05:26:44;;;;;;;1.60;0.50;;;;;;;;;;5061651;28;20289;-60
2023/06/15 05:29:09;;;;;;;0.50;0.50;;;;;;;;;;5062008;28;20285;-60
2023/06/15 05:31:35;;;;;;;0.63;0.63;;;;;;;;;;5062501;28;20080;-61
2023/06/15 05:34:01;;;;;;;0.50;0.50;;;;;;;;;;5062736;28;20362;-60
2023/06/15 05:36:30;;;;;;;0.57;0.57;;;;;;;;;;5062374;28;20514;-60
2023/06/15 05:38:57;;;;;;;0.50;0.50;;;;;;;;;;5062395;28;20697;-60
2023/06/15 05:41:23;;;;;;;0.40;0.40;;;;;;;;;;5064961;28;20504;-60
2023/06/15 05:43:49;;;;;;;0.52;0.52;;;;;;;;;;5066048;28;20083;-60
2023/06/15 05:46:15;;;;;;;0.60;0.60;;;;;;;;;;5065390;28;20044;-61
2023/06/15 05:48:41;;;;;;;0.50;0.50;;;;;;;;;;5065705;28;20040;-60
2023/06/15 05:51:07;;;;;;;0.40;0.40;;;;;;;;;;5065848;28;20523;-61
2023/06/15 05:53:33;;;;;;;0.57;0.50;;;;;;;;;;5065264;28;20095;-61
2023/06/15 05:55:59;;;;;;;0.63;0.40;;;;;;;;;;5066125;28;20044;-61
2023/06/15 05:58:25;;;;;;;0.60;0.60;;;;;;;;;;5065485;28;20443;-61
2023/06/15 06:00:51;;;;;;;0.50;0.50;;;;;;;;;;5064862;28;20044;-61
2023/06/15 06:03:17;;;;;;;0.50;0.43;;;;;;;;;;5065663;28;20127;-61
2023/06/15 06:05:43;;;;;;;0.73;0.40;;;;;;;;;;5065865;28;20127;-60
2023/06/15 06:08:09;;;;;;;0.38;0.38;;;;;;;;;;5064995;28;20120;-60
2023/06/15 06:10:35;;;;;;;0.55;0.50;;;;;;;;;;5065301;28;20140;-60
2023/06/15 06:13:01;;;;;;;0.40;0.40;;;;;;;;;;5066064;28;20056;-60
2023/06/15 06:15:27;;;;;;;0.20;0.20;;;;;;;;;;5064481;28;20047;-61
2023/06/15 06:17:53;;;;;;;0.45;0.40;;;;;;;;;;5065547;28;20507;-61
2023/06/15 06:20:19;;;;;;;0.40;0.40;;;;;;;;;;5064944;28;20502;-60
2023/06/15 06:22:45;;;;;;;0.47;0.40;;;;;;;;;;5064859;28;20048;-61
2023/06/15 06:25:12;;;;;;;0.50;0.50;;;;;;;;;;5064807;28;20064;-61
2023/06/15 06:27:38;;;;;;;0.50;0.50;;;;;;;;;;5047513;28;20041;-61
2023/06/15 06:30:04;;;;;;;0.77;0.77;;;;;;;;;;5064606;28;20446;-61
2023/06/15 06:32:30;;;;;;;2.25;1.02;;;;;;;;;;5065489;28;20499;-61
2023/06/15 06:34:56;;;;;;;0.77;0.77;;;;;;;;;;5065377;28;20471;-61
2023/06/15 06:37:24;;;;;;;0.40;0.40;;;;;;;;;;5064175;28;20513;-61
2023/06/15 06:39:50;;;;;;;0.57;0.57;;;;;;;;;;5064865;28;20051;-60
2023/06/15 06:42:16;;;;;;;0.30;0.30;;;;;;;;;;5064684;28;20036;-60
2023/06/15 06:44:42;;;;;;;0.40;0.40;;;;;;;;;;5064143;28;20916;-61
2023/06/15 06:47:08;;;;;;;0.40;0.40;;;;;;;;;;5064757;28;20292;-60
2023/06/15 06:49:34;;;;;;;0.40;0.40;;;;;;;;;;5064362;28;20040;-60
2023/06/15 06:52:00;;;;;;;0.47;0.30;;;;;;;;;;5064054;28;20510;-60
2023/06/15 06:54:26;;;;;;;1.02;0.75;;;;;;;;;;5064321;28;20644;-61
2023/06/15 06:56:52;;;;;;;0.50;0.40;;;;;;;;;;5064227;28;20052;-61
2023/06/15 06:59:18;;;;;;;0.40;0.40;;;;;;;;;;5064431;28;20123;-60
2023/06/15 07:01:44;;;;;;;0.57;0.40;;;;;;;;;;5064567;28;20124;-60
2023/06/15 07:04:10;;;;;;;0.70;0.50;;;;;;;;;;5063781;28;20048;-60
2023/06/15 07:06:36;;;;;;;0.73;0.73;;;;;;;;;;5064537;28;20119;-60
2023/06/15 07:09:02;;;;;;;0.40;0.40;;;;;;;;;;5065027;28;20094;-60
2023/06/15 07:11:28;;;;;;;0.40;0.40;;;;;;;;;;5064240;28;20417;-60
2023/06/15 07:13:54;;;;;;;0.40;0.40;;;;;;;;;;5064393;28;20324;-60
2023/06/15 07:16:20;;;;;;;0.47;0.47;;;;;;;;;;5064082;28;20047;-60
2023/06/15 07:18:46;;;;;;;0.35;0.35;;;;;;;;;;5063790;28;20040;-61
2023/06/15 07:21:12;;;;;;;0.50;0.50;;;;;;;;;;5063946;28;20041;-61
2023/06/15 07:23:38;;;;;;;0.60;0.60;;;;;;;;;;5063882;28;20419;-61
2023/06/15 07:26:04;;;;;;;0.52;0.43;;;;;;;;;;5063288;28;20512;-61
2023/06/15 07:28:30;;;;;;;0.40;0.32;;;;;;;;;;5064242;28;20561;-61
2023/06/15 07:30:56;;;;;;;0.68;0.60;;;;;;;;;;5064318;28;20048;-61
2023/06/15 07:33:22;;;;;;;0.40;0.40;;;;;;;;;;5063034;28;20044;-61
2023/06/15 07:35:48;;;;;;;0.50;0.50;;;;;;;;;;5063633;28;20271;-61
2023/06/15 07:38:14;;;;;;;0.60;0.50;;;;;;;;;;5063881;28;20076;-60
2023/06/15 07:40:41;;;;;;;0.68;0.68;;;;;;;;;;5063682;28;20359;-60
2023/06/15 07:43:07;;;;;;;0.60;0.60;;;;;;;;;;5064062;28;20076;-61
2023/06/15 07:45:33;;;;;;;0.85;0.60;;;;;;;;;;5064174;28;20043;-61
2023/06/15 07:47:59;;;;;;;0.75;0.60;;;;;;;;;;5063135;28;20040;-61
2023/06/15 07:50:28;;;;;;;1.33;1.13;;;;;;;;;;5063251;28;20597;-61
2023/06/15 07:52:55;;;;;;;1.20;0.90;;;;;;;;;;5062919;28;20069;-61
2023/06/15 07:55:21;;;;;;;0.73;0.70;;;;;;;;;;5063530;28;20056;-61
2023/06/15 07:57:47;;;;;;;0.77;0.77;;;;;;;;;;5063554;28;20387;-61
2023/06/15 08:00:13;;;;;;;1.60;0.70;;;;;;;;;;5062361;28;20051;-61
2023/06/15 08:02:39;;;;;;;0.82;0.82;;;;;;;;;;5063201;28;20044;-61
2023/06/15 08:05:05;;;;;;;0.80;0.80;;;;;;;;;;5063811;28;20083;-61
2023/06/15 08:07:31;;;;;;;0.93;0.80;;;;;;;;;;5063094;28;20127;-62
2023/06/15 08:09:58;;;;;;;1.05;0.95;;;;;;;;;;5063086;28;20626;-61
2023/06/15 08:12:24;;;;;;;1.58;0.60;;;;;;;;;;5063147;28;20089;-61
2023/06/15 08:14:50;;;;;;;0.80;0.80;;;;;;;;;;5063077;28;20040;-61
2023/06/15 08:17:16;;;;;;;0.93;0.93;;;;;;;;;;5063092;28;20033;-61
2023/06/15 08:19:42;;;;;;;1.00;0.90;;;;;;;;;;5063157;28;20036;-62
2023/06/15 08:22:08;;;;;;;1.48;0.60;;;;;;;;;;5062587;28;20040;-62
2023/06/15 08:24:34;;;;;;;1.05;0.85;;;;;;;;;;5063974;28;20089;-62
2023/06/15 08:27:00;;;;;;;1.00;0.90;;;;;;;;;;5063676;28;20075;-62
2023/06/15 08:29:26;;;;;;;1.00;0.90;;;;;;;;;;5062092;28;20060;-62
2023/06/15 08:31:52;;;;;;;0.68;0.68;;;;;;;;;;5063003;28;20132;-62
2023/06/15 08:34:18;;;;;;;1.00;0.73;;;;;;;;;;5062764;28;20131;-62
2023/06/15 08:36:45;;;;;;;0.90;0.80;;;;;;;;;;5062551;28;20428;-63
2023/06/15 08:39:11;;;;;;;0.75;0.75;;;;;;;;;;5062821;28;20079;-62
2023/06/15 08:41:37;;;;;;;0.88;0.65;;;;;;;;;;5063290;28;20459;-63
2023/06/15 08:44:04;;;;;;;1.73;0.80;;;;;;;;;;5062738;28;20520;-62
2023/06/15 08:46:31;;;;;;;0.73;0.73;;;;;;;;;;5063249;28;20048;-62
2023/06/15 08:48:57;;;;;;;1.08;0.90;;;;;;;;;;5062850;28;20374;-62
2023/06/15 08:51:23;;;;;;;0.90;0.90;;;;;;;;;;5061949;28;20046;-62
2023/06/15 08:53:54;;;;;;;0.88;0.80;;;;;;;;;;5062904;28;20080;-62
2023/06/15 08:56:20;;;;;;;0.90;0.90;;;;;;;;;;5061958;28;20094;-62
2023/06/15 08:58:49;;;;;;;0.57;0.57;;;;;;;;;;5062828;28;20084;-62
2023/06/15 09:01:22;;;;;;;2.72;1.00;;;;;;;;;;5062942;28;20292;-62
2023/06/15 09:03:55;;;;;;;1.38;0.88;;;;;;;;;;5062073;28;20063;-62
2023/06/15 09:06:22;;;;;;;0.93;0.70;;;;;;;;;;5062579;28;20410;-62
2023/06/15 09:08:51;;;;;;;0.70;0.70;;;;;;;;;;5063097;28;20040;-62
2023/06/15 09:11:18;;;;;;;1.67;0.80;;;;;;;;;;5061750;28;20591;-63
2023/06/15 09:13:45;;;;;;;0.75;0.75;;;;;;;;;;5063294;28;20048;-62
2023/06/15 09:16:11;;;;;;;0.90;0.90;;;;;;;;;;5066289;28;20298;-62
2023/06/15 09:18:45;;;;;;;1.23;1.02;;;;;;;;;;5066288;28;20040;-62
2023/06/15 09:21:11;;;;;;;0.93;0.93;;;;;;;;;;5066169;28;20669;-62
2023/06/15 09:23:39;;;;;;;1.10;0.95;;;;;;;;;;5066911;28;20102;-62
2023/06/15 09:26:06;;;;;;;1.00;1.00;;;;;;;;;;5065633;28;20048;-62
2023/06/15 09:28:32;;;;;;;0.75;0.75;;;;;;;;;;5067143;28;20367;-62
2023/06/15 09:30:59;;;;;;;0.60;0.60;;;;;;;;;;5066502;28;20404;-62
2023/06/15 09:33:26;;;;;;;0.98;0.90;;;;;;;;;;5065540;28;20270;-62
2023/06/15 09:35:57;;;;;;;0.95;0.82;;;;;;;;;;5066185;28;20048;-62
2023/06/15 09:38:23;;;;;;;3.13;1.10;;;;;;;;;;5065341;28;20109;-62
2023/06/15 09:40:49;;;;;;;2.17;1.13;;;;;;;;;;5065983;28;20270;-62
2023/06/15 09:43:16;;;;;;;1.45;1.30;;;;;;;;;;5066514;28;20400;-62
2023/06/15 09:45:52;;;;;;;1.00;1.00;;;;;;;;;;5065757;28;20106;-62
2023/06/15 09:48:18;;;;;;;0.82;0.82;;;;;;;;;;5065755;28;20040;-62
2023/06/15 09:50:44;;;;;;;1.38;0.93;;;;;;;;;;5048060;28;20055;-62
2023/06/15 09:53:12;;;;;;;0.90;0.90;;;;;;;;;;5065014;28;20052;-62
2023/06/15 09:55:43;;;;;;;0.90;0.90;;;;;;;;;;5065707;28;20211;-62
2023/06/15 09:58:10;;;;;;;3.60;1.13;;;;;;;;;;5065323;28;20652;-63
2023/06/15 10:00:36;;;;;;;1.05;0.95;;;;;;;;;;5065234;28;20708;-63
2023/06/15 10:03:03;;;;;;;1.52;1.23;;;;;;;;;;5066142;28;20048;-63
2023/06/15 10:05:33;;;;;;;2.70;1.08;;;;;;;;;;5065305;28;20044;-62
2023/06/15 10:08:01;;;;;;;1.15;1.05;;;;;;;;;;5065167;28;20060;-63
2023/06/15 10:10:29;;;;;;;1.75;0.93;;;;;;;;;;5065296;28;20516;-63
2023/06/15 10:12:55;;;;;;;1.25;1.10;;;;;;;;;;5065577;28;20067;-63
2023/06/15 10:15:23;;;;;;;1.08;0.90;;;;;;;;;;5064511;28;20051;-63
2023/06/15 10:17:52;;;;;;;1.20;1.10;;;;;;;;;;5065537;28;20059;-63
2023/06/15 10:20:19;;;;;;;0.90;0.90;;;;;;;;;;5065698;28;20076;-63
2023/06/15 10:22:48;;;;;;;1.08;0.88;;;;;;;;;;5064564;28;20407;-63
2023/06/15 10:25:15;;;;;;;0.90;0.90;;;;;;;;;;5065318;28;20487;-63
2023/06/15 10:27:41;;;;;;;0.80;0.80;;;;;;;;;;5063280;28;20126;-62
2023/06/15 10:30:31;;;;;;;1.45;1.20;;;;;;;;;;5065311;28;20439;-62
2023/06/15 10:32:57;;;;;;;1.13;1.02;;;;;;;;;;5036323;28;20062;-62
2023/06/15 10:35:28;;;;;;;1.00;0.90;;;;;;;;;;5064311;28;20043;-62
2023/06/15 10:38:00;;;;;;;1.35;1.25;;;;;;;;;;5065391;28;20449;-62
2023/06/15 10:40:30;;;;;;;1.30;1.20;;;;;;;;;;5064944;28;20052;-62
2023/06/15 10:42:57;;;;;;;1.00;1.00;;;;;;;;;;5064318;28;20044;-63
2023/06/15 10:45:26;;;;;;;2.10;1.20;;;;;;;;;;5064827;28;20040;-63
2023/06/15 10:47:52;;;;;;;1.38;1.00;;;;;;;;;;5065370;28;20047;-63
2023/06/15 10:50:19;;;;;;;0.80;0.80;;;;;;;;;;5064144;28;20044;-63
2023/06/15 10:52:45;;;;;;;0.95;0.88;;;;;;;;;;5064894;28;20079;-62
2023/06/15 10:55:15;;;;;;;1.00;0.90;;;;;;;;;;5064437;28;20075;-62
2023/06/15 10:57:41;;;;;;;1.33;1.23;;;;;;;;;;5064238;28;20049;-62
2023/06/15 11:00:08;;;;;;;0.93;0.93;;;;;;;;;;5064289;28;20048;-62
2023/06/15 11:02:34;;;;;;;1.80;1.35;;;;;;;;;;5065276;28;20040;-62
2023/06/15 11:05:01;;;;;;;1.38;1.27;;;;;;;;;;5064039;28;20447;-62
2023/06/15 11:07:28;;;;;;;1.10;1.00;;;;;;;;;;5064254;28;20048;-63
2023/06/15 11:09:57;;;;;;;1.40;1.30;;;;;;;;;;5063478;28;20576;-63
2023/06/15 11:12:36;;;;;;;1.60;1.13;;;;;;;;;;5064002;28;20120;-63
2023/06/15 11:15:03;;;;;;;1.00;1.00;;;;;;;;;;5065005;28;20411;-63
2023/06/15 11:17:30;;;;;;;1.55;1.20;;;;;;;;;;5063730;28;20052;-63
2023/06/15 11:19:57;;;;;;;1.10;0.90;;;;;;;;;;5064376;28;20258;-63
2023/06/15 11:22:25;;;;;;;1.30;1.20;;;;;;;;;;5063838;28;20059;-63
2023/06/15 11:24:54;;;;;;;1.60;1.05;;;;;;;;;;5063843;28;20040;-62
2023/06/15 11:27:24;;;;;;;1.25;1.10;;;;;;;;;;5063582;28;20094;-62
2023/06/15 11:30:00;;;;;;;1.25;1.10;;;;;;;;;;5064454;28;20063;-62
2023/06/15 11:32:26;;;;;;;1.45;1.35;;;;;;;;;;5063273;28;20090;-62
2023/06/15 11:34:56;;;;;;;1.33;1.23;;;;;;;;;;5064022;28;20044;-62
2023/06/15 11:37:22;;;;;;;1.30;1.17;;;;;;;;;;5063474;28;20052;-62
2023/06/15 11:39:48;;;;;;;1.00;0.95;;;;;;;;;;5062930;28;20443;-62
2023/06/15 11:42:15;;;;;;;1.35;1.10;;;;;;;;;;5063422;28;20504;-62
2023/06/15 11:44:41;;;;;;;1.92;1.20;;;;;;;;;;5063898;28;20049;-62
2023/06/15 11:47:13;;;;;;;1.52;1.20;;;;;;;;;;5062744;28;20040;-63
2023/06/15 11:49:40;;;;;;;1.83;1.70;;;;;;;;;;5063991;28;20048;-63
2023/06/15 11:52:06;;;;;;;1.58;1.40;;;;;;;;;;5063405;28;20101;-63
2023/06/15 11:54:33;;;;;;;2.95;1.60;;;;;;;;;;5064731;28;20044;-63
2023/06/15 11:56:59;;;;;;;1.40;1.30;;;;;;;;;;5063537;28;20484;-63
2023/06/15 11:59:27;;;;;;;1.38;1.27;;;;;;;;;;5062780;28;20095;-63
2023/06/15 12:02:00;;;;;;;1.30;1.20;;;;;;;;;;5063533;28;20066;-63
2023/06/15 12:04:30;;;;;;;4.85;1.75;;;;;;;;;;5063038;28;20059;-63
2023/06/15 12:06:56;;;;;;;1.77;1.52;;;;;;;;;;5062741;28;20056;-63
2023/06/15 12:09:22;;;;;;;1.77;1.30;;;;;;;;;;5063219;28;20036;-63
2023/06/15 12:11:48;;;;;;;3.63;1.52;;;;;;;;;;5063520;28;20412;-63
2023/06/15 12:14:20;;;;;;;1.30;1.20;;;;;;;;;;5062787;28;20052;-63
2023/06/15 12:16:46;;;;;;;;;;;;;;;;;;5064117;28;20040;-63
2023/06/15 12:19:13;;;;;;;3.17;1.25;;;;;;;;;;5063362;28;19966;-63
2023/06/15 12:21:39;;;;;;;1.40;1.30;;;;;;;;;;5063069;28;20044;-63
2023/06/15 12:24:15;;;;;;;1.38;1.27;;;;;;;;;;5063470;28;20498;-63
2023/06/15 12:26:42;;;;;;;1.98;1.77;;;;;;;;;;5063131;28;20120;-63
2023/06/15 12:29:18;;;;;;;1.65;1.48;;;;;;;;;;5062165;28;20051;-63
2023/06/15 12:31:48;;;;;;;2.85;1.40;;;;;;;;;;5063081;28;20043;-63
2023/06/15 12:34:14;;;;;;;1.38;1.27;;;;;;;;;;5061952;28;20569;-63
2023/06/15 12:36:41;;;;;;;2.08;1.23;;;;;;;;;;5063029;28;20044;-63
2023/06/15 12:39:13;;;;;;;1.75;1.65;;;;;;;;;;5063420;28;20469;-64
2023/06/15 12:41:41;;;;;;;1.27;1.17;;;;;;;;;;5062298;28;20530;-61
2023/06/15 12:44:07;;;;;;;1.30;1.20;;;;;;;;;;5062635;28;20466;-61
2023/06/15 12:46:39;;;;;;;2.15;1.20;;;;;;;;;;5063677;28;20045;-61
2023/06/15 12:49:09;;;;;;;2.63;1.20;;;;;;;;;;5062191;28;20538;-61
2023/06/15 12:51:36;;;;;;;1.33;1.23;;;;;;;;;;5063799;28;20041;-61
2023/06/15 12:54:07;;;;;;;1.42;1.30;;;;;;;;;;5063462;28;20147;-61
2023/06/15 12:56:34;;;;;;;1.33;1.23;;;;;;;;;;5062703;28;20049;-61
2023/06/15 12:59:00;;;;;;;1.80;1.70;;;;;;;;;;5062957;28;20109;-61
2023/06/15 13:01:26;;;;;;;3.85;1.75;;;;;;;;;;5062503;28;20542;-61
2023/06/15 13:03:52;;;;;;;1.90;1.67;;;;;;;;;;5062027;28;20691;-61
2023/06/15 13:06:19;;;;;;;1.67;1.42;;;;;;;;;;5062469;28;20128;-61
2023/06/15 13:08:45;;;;;;;1.92;1.50;;;;;;;;;;5062836;28;20048;-61
2023/06/15 13:11:12;;;;;;;1.77;1.67;;;;;;;;;;5061344;28;20052;-61
2023/06/15 13:13:38;;;;;;;1.65;1.48;;;;;;;;;;5062626;28;20131;-61
2023/06/15 13:16:04;;;;;;;1.52;1.30;;;;;;;;;;5063231;28;20123;-62
2023/06/15 13:18:30;;;;;;;1.98;1.27;;;;;;;;;;5062032;28;20116;-61
2023/06/15 13:20:57;;;;;;;3.08;1.77;;;;;;;;;;5045656;28;20097;-61
2023/06/15 13:23:23;;;;;;;1.70;1.60;;;;;;;;;;5064511;28;20080;-61
2023/06/15 13:25:49;;;;;;;2.53;1.75;;;;;;;;;;5062835;28;20049;-61
2023/06/15 13:28:15;;;;;;;1.45;1.30;;;;;;;;;;5063013;28;20563;-62
2023/06/15 13:30:41;;;;;;;1.85;1.52;;;;;;;;;;5062095;28;20076;-62
2023/06/15 13:33:07;;;;;;;4.15;1.67;;;;;;;;;;5062214;28;20067;-61
2023/06/15 13:35:33;;;;;;;1.70;1.52;;;;;;;;;;5063222;28;20469;-61
2023/06/15 13:37:59;;;;;;;1.92;1.75;;;;;;;;;;5062199;28;20044;-61
2023/06/15 13:40:25;;;;;;;1.52;1.42;;;;;;;;;;5062361;28;20045;-61
2023/06/15 13:42:51;;;;;;;1.58;1.40;;;;;;;;;;5062152;28;20040;-61
2023/06/15 13:45:19;;;;;;;1.45;1.35;;;;;;;;;;5061447;28;20041;-61
2023/06/15 13:47:45;;;;;;;1.30;1.13;;;;;;;;;;5062642;28;20046;-61
2023/06/15 13:50:12;;;;;;;3.22;2.05;;;;;;;;;;5062179;28;20040;-61
2023/06/15 13:52:39;;;;;;;2.22;1.50;;;;;;;;;;5061981;28;20075;-61
2023/06/15 13:55:06;;;;;;;2.08;1.60;;;;;;;;;;5063101;28;20050;-61
2023/06/15 13:57:34;;;;;;;1.65;1.52;;;;;;;;;;5044972;28;20102;-61
2023/06/15 14:00:00;;;;;;;1.40;1.30;;;;;;;;;;5061765;28;20056;-61
2023/06/15 14:02:27;;;;;;;1.58;1.42;;;;;;;;;;5065273;28;21010;-61
2023/06/15 14:04:55;;;;;;;1.77;1.23;;;;;;;;;;5065507;28;20636;-61
2023/06/15 14:07:21;;;;;;;1.40;1.30;;;;;;;;;;5064903;28;20080;-61
2023/06/15 14:09:47;;;;;;;1.23;0.98;;;;;;;;;;5065615;28;20052;-61
2023/06/15 14:12:13;;;;;;;2.33;1.48;;;;;;;;;;5065436;28;20458;-61
2023/06/15 14:14:40;;;;;;;1.35;1.20;;;;;;;;;;5065181;28;20419;-61
2023/06/15 14:17:06;;;;;;;1.48;1.38;;;;;;;;;;5066025;28;20192;-61
2023/06/15 14:19:32;;;;;;;1.33;1.23;;;;;;;;;;5066358;28;20135;-61
2023/06/15 14:21:58;;;;;;;0.90;0.90;;;;;;;;;;5065129;28;20123;-61
2023/06/15 14:24:24;;;;;;;1.20;1.10;;;;;;;;;;5065058;28;20066;-61
2023/06/15 14:26:50;;;;;;;1.58;1.35;;;;;;;;;;5064882;28;20499;-62
2023/06/15 14:29:16;;;;;;;1.60;1.33;;;;;;;;;;5065222;28;20043;-61
2023/06/15 14:31:49;;;;;;;1.63;1.52;;;;;;;;;;5065519;28;20046;-61
2023/06/15 14:34:16;;;;;;;1.85;1.70;;;;;;;;;;5064248;28;20052;-61
2023/06/15 14:36:42;;;;;;;2.88;1.42;;;;;;;;;;5065304;28;20048;-61
2023/06/15 14:39:08;;;;;;;1.52;1.30;;;;;;;;;;5064985;28;20044;-61
2023/06/15 14:41:35;;;;;;;1.63;1.52;;;;;;;;;;5065386;28;20044;-61